Time;durP1;ratioP1;P1;durP2;ratioP2;P2;SDS_P1;SDS_P2;PMS_P1;PMS_P2;Temp;Humidity;BMP_temperature;BMP_pressure;BME280_temperature;BME280_humidity;BME280_pressure;Samples;Min_cycle;Max_cycle;Signal;HPM_P1;HPM_P2
2021/09/08 00:01:49;;;;;;;23.07;20.00;;;14.30;1.00;;;;;;5034251;28;20409;-81
2021/09/08 00:04:16;;;;;;;22.20;19.80;;;14.20;1.00;;;;;;5023158;28;20423;-81
2021/09/08 00:06:47;;;;;;;23.00;20.53;;;14.20;1.00;;;;;;5030094;28;20440;-81
2021/09/08 00:09:16;;;;;;;22.43;20.23;;;14.20;1.00;;;;;;5033009;28;20548;-81
2021/09/08 00:11:46;;;;;;;22.03;19.63;;;14.10;1.00;;;;;;5031048;28;20543;-82
2021/09/08 00:14:12;;;;;;;51.63;45.50;;;14.10;1.00;;;;;;5036535;28;20493;-80
2021/09/08 00:16:39;;;;;;;24.67;22.17;;;14.10;1.00;;;;;;5028716;28;20405;-80
2021/09/08 00:19:06;;;;;;;22.20;19.90;;;14.00;1.00;;;;;;5038120;28;20531;-81
2021/09/08 00:21:33;;;;;;;23.17;20.93;;;14.00;1.00;;;;;;5033627;28;20441;-81
2021/09/08 00:24:00;;;;;;;24.20;20.50;;;14.10;1.00;;;;;;5035747;28;20445;-81
2021/09/08 00:26:28;;;;;;;23.70;21.17;;;14.10;1.00;;;;;;5032697;28;20413;-81
2021/09/08 00:28:54;;;;;;;23.13;20.60;;;14.10;1.00;;;;;;5031620;28;20485;-82
2021/09/08 00:31:22;;;;;;;22.10;19.90;;;14.00;1.00;;;;;;5031683;28;20542;-82
2021/09/08 00:33:49;;;;;;;21.83;19.63;;;14.00;1.00;;;;;;5031160;28;20532;-82
2021/09/08 00:36:15;;;;;;;22.40;19.57;;;14.00;1.00;;;;;;5031712;28;20563;-82
2021/09/08 00:38:43;;;;;;;23.97;21.33;;;14.00;1.00;;;;;;5031036;28;20465;-82
2021/09/08 00:41:12;;;;;;;22.97;20.63;;;14.00;1.00;;;;;;5035424;28;20493;-82
2021/09/08 00:43:42;;;;;;;21.43;19.33;;;14.00;1.00;;;;;;5034600;28;20516;-81
2021/09/08 00:46:09;;;;;;;23.60;21.03;;;14.00;1.00;;;;;;5030379;28;20457;-82
2021/09/08 00:48:38;;;;;;;21.70;19.43;;;14.00;1.00;;;;;;5028652;28;20582;-81
2021/09/08 00:51:05;;;;;;;22.70;20.40;;;14.00;1.00;;;;;;5033622;28;20441;-81
2021/09/08 00:53:34;;;;;;;25.40;20.20;;;14.00;1.00;;;;;;5011891;28;20465;-81
2021/09/08 00:56:03;;;;;;;21.83;19.53;;;14.00;1.00;;;;;;5034037;28;20506;-82
2021/09/08 00:58:35;;;;;;;20.60;18.40;;;14.00;1.00;;;;;;5040029;28;20457;-80
2021/09/08 01:01:04;;;;;;;22.60;20.20;;;13.90;1.00;;;;;;5024464;28;20568;-81
2021/09/08 01:03:31;;;;;;;24.13;21.63;;;13.90;1.00;;;;;;5029666;28;21247;-81
2021/09/08 01:05:58;;;;;;;24.90;21.80;;;13.90;1.00;;;;;;5027773;28;20407;-81
2021/09/08 01:08:25;;;;;;;23.47;20.97;;;13.80;1.00;;;;;;5023890;28;20445;-81
2021/09/08 01:10:52;;;;;;;23.97;21.40;;;13.80;1.00;;;;;;5010293;28;20444;-81
2021/09/08 01:13:19;;;;;;;23.53;21.03;;;13.80;1.00;;;;;;5011177;28;20490;-80
2021/09/08 01:15:57;;;;;;;23.23;20.83;;;13.80;1.00;;;;;;5028152;28;20444;-81
2021/09/08 01:18:29;;;;;;;23.53;21.23;;;13.80;1.00;;;;;;5027063;28;20510;-81
2021/09/08 01:20:55;;;;;;;22.30;20.20;;;13.80;1.00;;;;;;5029387;28;20452;-81
2021/09/08 01:23:24;;;;;;;23.33;20.93;;;13.70;1.00;;;;;;5023705;28;20488;-81
2021/09/08 01:25:50;;;;;;;23.90;21.40;;;13.80;1.00;;;;;;5024178;28;20437;-81
2021/09/08 01:28:17;;;;;;;22.73;20.43;;;13.70;1.00;;;;;;5028387;28;20461;-81
2021/09/08 01:30:53;;;;;;;22.23;19.90;;;13.70;1.00;;;;;;5025564;28;20441;-81
2021/09/08 01:33:20;;;;;;;22.67;20.17;;;13.70;1.00;;;;;;5026912;28;20451;-81
2021/09/08 01:35:49;;;;;;;23.87;21.23;;;13.60;1.00;;;;;;5026383;28;21068;-81
2021/09/08 01:38:15;;;;;;;22.03;19.73;;;13.70;1.00;;;;;;5022860;28;21501;-80
2021/09/08 01:40:44;;;;;;;22.80;20.60;;;13.60;1.00;;;;;;5025148;28;21168;-82
2021/09/08 01:43:13;;;;;;;23.53;21.13;;;13.60;1.00;;;;;;5007463;28;20464;-82
2021/09/08 01:45:41;;;;;;;25.33;20.70;;;13.60;1.00;;;;;;5031254;28;21539;-81
2021/09/08 01:48:09;;;;;;;24.47;21.20;;;13.70;1.00;;;;;;5029001;28;20590;-82
2021/09/08 01:50:38;;;;;;;21.80;19.50;;;13.70;1.00;;;;;;5033911;28;20544;-81
2021/09/08 01:53:05;;;;;;;23.43;21.10;;;13.70;1.00;;;;;;5026261;28;20547;-81
2021/09/08 01:55:32;;;;;;;22.87;20.47;;;13.70;1.00;;;;;;5027808;28;20437;-81
2021/09/08 01:58:00;;;;;;;23.37;20.97;;;13.60;1.00;;;;;;5030043;28;20555;-80
2021/09/08 02:00:26;;;;;;;22.20;19.93;;;13.60;1.00;;;;;;5030680;28;20578;-81
2021/09/08 02:02:53;;;;;;;23.53;21.03;;;13.60;1.00;;;;;;5027666;28;21502;-81
2021/09/08 02:05:20;;;;;;;26.03;23.33;;;13.60;1.00;;;;;;5024135;28;20471;-81
2021/09/08 02:07:47;;;;;;;26.30;22.40;;;13.60;1.00;;;;;;5043987;28;21442;-81
2021/09/08 02:10:14;;;;;;;25.90;21.50;;;13.50;1.00;;;;;;5025433;28;20562;-81
2021/09/08 02:12:42;;;;;;;23.27;21.07;;;13.50;1.00;;;;;;5025317;28;20619;-81
2021/09/08 02:15:11;;;;;;;24.03;21.57;;;13.40;1.00;;;;;;5030005;28;21092;-81
2021/09/08 02:17:42;;;;;;;25.10;22.30;;;13.40;1.00;;;;;;5034132;28;20530;-81
2021/09/08 02:20:12;;;;;;;23.80;21.47;;;13.40;1.00;;;;;;5018528;28;20448;-81
2021/09/08 02:22:40;;;;;;;24.20;21.60;;;13.40;1.00;;;;;;5028971;28;20464;-82
2021/09/08 02:25:07;;;;;;;23.33;21.00;;;13.40;1.00;;;;;;5030655;28;21103;-81
2021/09/08 02:27:34;;;;;;;23.10;20.70;;;13.40;1.00;;;;;;5032564;28;20456;-81
2021/09/08 02:30:01;;;;;;;24.03;21.63;;;13.40;1.00;;;;;;5032989;28;20444;-82
2021/09/08 02:32:29;;;;;;;22.93;20.60;;;13.40;1.00;;;;;;5028177;28;20453;-82
2021/09/08 02:34:56;;;;;;;22.67;20.37;;;13.40;1.00;;;;;;5029073;28;20456;-81
2021/09/08 02:37:27;;;;;;;24.37;21.43;;;13.40;1.00;;;;;;5029450;28;21085;-80
2021/09/08 02:39:54;;;;;;;24.13;21.73;;;13.40;1.00;;;;;;5026816;28;20948;-80
2021/09/08 02:42:20;;;;;;;22.60;20.20;;;13.40;1.00;;;;;;5026948;28;20524;-80
2021/09/08 02:44:48;;;;;;;23.50;21.00;;;13.50;1.00;;;;;;5029976;28;20544;-80
2021/09/08 02:47:16;;;;;;;25.43;22.57;;;13.40;1.00;;;;;;5024559;28;20474;-80
2021/09/08 02:49:44;;;;;;;22.97;20.67;;;13.50;1.00;;;;;;5026177;28;20508;-81
2021/09/08 02:52:11;;;;;;;23.60;21.27;;;13.50;1.00;;;;;;5028198;28;20523;-80
2021/09/08 02:54:38;;;;;;;22.80;20.53;;;13.50;1.00;;;;;;5035907;28;20551;-80
2021/09/08 02:57:05;;;;;;;26.20;21.10;;;13.50;1.00;;;;;;5020254;28;20463;-81
2021/09/08 02:59:33;;;;;;;26.00;20.77;;;13.50;1.00;;;;;;5038778;28;20440;-81
2021/09/08 03:02:00;;;;;;;24.03;21.43;;;13.50;1.00;;;;;;5050391;28;20496;-81
2021/09/08 03:04:27;;;;;;;23.67;21.17;;;13.50;1.00;;;;;;5048167;28;20401;-81
2021/09/08 03:06:56;;;;;;;23.43;20.90;;;13.50;1.00;;;;;;5049352;28;20416;-81
2021/09/08 03:09:23;;;;;;;25.13;20.60;;;13.40;1.00;;;;;;5049894;28;20424;-82
2021/09/08 03:11:54;;;;;;;23.43;20.90;;;13.40;1.00;;;;;;5049167;28;20531;-80
2021/09/08 03:14:21;;;;;;;23.63;20.67;;;13.40;1.00;;;;;;5044646;28;20453;-80
2021/09/08 03:16:48;;;;;;;24.00;20.50;;;13.40;1.00;;;;;;5042015;28;20444;-80
2021/09/08 03:19:17;;;;;;;25.20;22.53;;;13.40;1.00;;;;;;5034112;28;20548;-80
2021/09/08 03:21:45;;;;;;;23.00;20.70;;;13.40;1.00;;;;;;5029824;28;23952;-83
2021/09/08 03:24:13;;;;;;;24.40;21.80;;;13.40;1.00;;;;;;5033712;28;20551;-82
2021/09/08 03:26:40;;;;;;;26.00;21.57;;;13.40;1.00;;;;;;5031885;28;20472;-82
2021/09/08 03:29:09;;;;;;;23.97;21.50;;;13.40;1.00;;;;;;5028051;28;20453;-80
2021/09/08 03:31:35;;;;;;;25.63;22.80;;;13.40;1.00;;;;;;5029603;28;20477;-82
2021/09/08 03:34:02;;;;;;;23.47;20.97;;;13.40;1.00;;;;;;5029864;28;20556;-82
2021/09/08 03:36:31;;;;;;;25.20;21.60;;;13.40;1.00;;;;;;5031503;28;20983;-80
2021/09/08 03:38:58;;;;;;;23.80;21.37;;;13.40;1.00;;;;;;5026894;28;20449;-80
2021/09/08 03:41:26;;;;;;;24.70;22.20;;;13.30;1.00;;;;;;5031958;28;20468;-80
2021/09/08 03:43:53;;;;;;;24.57;21.77;;;13.30;1.00;;;;;;5027795;28;21333;-81
2021/09/08 03:46:20;;;;;;;26.33;22.50;;;13.20;1.00;;;;;;5028755;28;20446;-81
2021/09/08 03:48:46;;;;;;;24.60;21.90;;;13.30;1.00;;;;;;5031236;28;20527;-81
2021/09/08 03:51:13;;;;;;;24.87;22.17;;;13.20;1.00;;;;;;5029830;28;20459;-81
2021/09/08 03:53:40;;;;;;;22.53;20.20;;;13.30;1.00;;;;;;5031764;28;20475;-81
2021/09/08 03:56:08;;;;;;;25.20;22.50;;;13.20;1.00;;;;;;5027284;28;20545;-82
2021/09/08 03:58:37;;;;;;;25.43;21.23;;;13.20;1.00;;;;;;5029157;28;20528;-80
2021/09/08 04:01:04;;;;;;;24.10;21.67;;;13.20;1.00;;;;;;5041936;28;20393;-80
2021/09/08 04:03:31;;;;;;;23.93;21.33;;;13.20;1.00;;;;;;5040706;28;20508;-81
2021/09/08 04:05:57;;;;;;;23.33;21.03;;;13.10;1.00;;;;;;5041293;28;21009;-82
2021/09/08 04:08:24;;;;;;;22.67;20.30;;;13.10;1.00;;;;;;5046057;28;20504;-82
2021/09/08 04:10:51;;;;;;;24.10;21.50;;;13.10;1.00;;;;;;5047779;28;20448;-81
2021/09/08 04:13:25;;;;;;;22.97;20.33;;;13.10;1.00;;;;;;5044022;28;21301;-81
2021/09/08 04:15:53;;;;;;;25.13;22.50;;;13.10;1.00;;;;;;5057473;28;20441;-81
2021/09/08 04:18:21;;;;;;;23.77;21.27;;;13.10;1.00;;;;;;5034588;28;20495;-81
2021/09/08 04:20:48;;;;;;;25.20;22.57;;;13.10;1.00;;;;;;5027094;28;20464;-79
2021/09/08 04:23:15;;;;;;;26.13;23.30;;;13.10;1.00;;;;;;5024966;28;20546;-80
2021/09/08 04:25:42;;;;;;;24.33;21.80;;;13.10;1.00;;;;;;5032607;28;21278;-80
2021/09/08 04:28:08;;;;;;;24.70;22.20;;;13.00;1.00;;;;;;5025100;28;20483;-78
2021/09/08 04:30:35;;;;;;;25.43;22.03;;;13.10;1.00;;;;;;5025138;28;20429;-77
2021/09/08 04:33:03;;;;;;;26.43;22.93;;;13.00;1.00;;;;;;5024903;28;20453;-78
2021/09/08 04:35:31;;;;;;;25.90;21.80;;;13.10;1.00;;;;;;5030291;28;20491;-78
2021/09/08 04:38:01;;;;;;;26.17;23.47;;;13.10;1.00;;;;;;5024401;28;20445;-78
2021/09/08 04:40:28;;;;;;;25.33;22.30;;;13.00;1.00;;;;;;5023422;28;20467;-77
2021/09/08 04:42:55;;;;;;;24.37;21.77;;;13.00;1.00;;;;;;5026542;28;20444;-79
2021/09/08 04:45:21;;;;;;;26.00;22.63;;;13.10;1.00;;;;;;5030664;28;20511;-79
2021/09/08 04:47:48;;;;;;;25.77;21.73;;;13.10;1.00;;;;;;5032891;28;21260;-79
2021/09/08 04:50:16;;;;;;;25.40;22.87;;;13.10;1.00;;;;;;5030506;28;20459;-77
2021/09/08 04:52:43;;;;;;;24.80;20.60;;;13.10;1.00;;;;;;5022420;28;20577;-78
2021/09/08 04:55:11;;;;;;;24.97;22.30;;;13.10;1.00;;;;;;5024892;28;21039;-78
2021/09/08 04:57:37;;;;;;;28.20;23.30;;;13.10;1.00;;;;;;5024511;28;21157;-78
2021/09/08 05:00:06;;;;;;;29.10;23.30;;;13.10;1.00;;;;;;5027064;28;20563;-78
2021/09/08 05:02:32;;;;;;;28.13;22.17;;;13.20;1.00;;;;;;5026694;28;21221;-79
2021/09/08 05:04:59;;;;;;;24.00;20.57;;;13.10;1.00;;;;;;5023013;28;20457;-76
2021/09/08 05:07:27;;;;;;;24.73;21.53;;;13.20;1.00;;;;;;5031655;28;20495;-78
2021/09/08 05:09:54;;;;;;;25.67;22.87;;;13.20;1.00;;;;;;5023989;28;20463;-77
2021/09/08 05:12:20;;;;;;;25.87;23.17;;;13.30;1.00;;;;;;5023987;28;21324;-81
2021/09/08 05:14:47;;;;;;;25.00;21.40;;;13.30;1.00;;;;;;5029580;28;21553;-81
2021/09/08 05:17:16;;;;;;;25.50;22.33;;;13.30;1.00;;;;;;5031001;28;20469;-80
2021/09/08 05:19:42;;;;;;;25.33;22.50;;;13.40;1.00;;;;;;5033864;28;20441;-80
2021/09/08 05:22:12;;;;;;;27.63;23.43;;;13.50;1.00;;;;;;5030877;28;20464;-79
2021/09/08 05:24:41;;;;;;;26.73;24.00;;;13.50;1.00;;;;;;5028836;28;20471;-80
2021/09/08 05:27:08;;;;;;;26.10;23.20;;;13.60;1.00;;;;;;5030126;28;20567;-81
2021/09/08 05:29:35;;;;;;;28.90;25.40;;;13.60;1.00;;;;;;5024510;28;20679;-83
2021/09/08 05:32:05;;;;;;;26.20;21.70;;;13.70;1.00;;;;;;5031493;28;20456;-81
2021/09/08 05:34:32;;;;;;;28.47;25.00;;;13.80;1.00;;;;;;5043602;28;20463;-81
2021/09/08 05:36:58;;;;;;;27.40;23.47;;;13.90;1.00;;;;;;5038055;28;20558;-81
2021/09/08 05:39:25;;;;;;;36.70;33.43;;;14.00;1.00;;;;;;5034684;28;20572;-85
2021/09/08 05:41:53;;;;;;;27.37;23.40;;;14.10;1.00;;;;;;5035901;28;21777;-82
2021/09/08 05:44:23;;;;;;;35.93;32.23;;;14.20;1.00;;;;;;5038473;28;20575;-85
2021/09/08 05:46:49;;;;;;;25.73;22.47;;;14.30;1.00;;;;;;5024551;28;20525;-84
2021/09/08 05:49:16;;;;;;;28.67;23.90;;;14.40;1.00;;;;;;5042791;28;20576;-82
2021/09/08 05:51:45;;;;;;;25.40;22.70;;;14.40;1.00;;;;;;5049176;28;20461;-81
2021/09/08 05:54:12;;;;;;;26.63;23.23;;;14.50;1.00;;;;;;5035932;28;20449;-81
2021/09/08 05:56:42;;;;;;;27.97;23.00;;;14.60;1.00;;;;;;5043995;28;20894;-83
2021/09/08 05:59:10;;;;;;;25.30;21.97;;;14.70;1.00;;;;;;5029006;28;20481;-80
2021/09/08 06:01:39;;;;;;;25.40;22.80;;;14.80;1.00;;;;;;5041554;28;20441;-77
2021/09/08 06:04:06;;;;;;;28.00;22.20;;;14.90;1.00;;;;;;5030825;28;20481;-78
2021/09/08 06:06:34;;;;;;;28.60;22.53;;;14.90;1.00;;;;;;5026947;28;20800;-79
2021/09/08 06:09:01;;;;;;;28.00;20.77;;;15.10;1.00;;;;;;5025417;28;20493;-79
2021/09/08 06:11:30;;;;;;;23.43;20.77;;;15.10;1.00;;;;;;5028353;28;21379;-79
2021/09/08 06:13:57;;;;;;;26.87;21.43;;;15.20;1.00;;;;;;5015811;28;21378;-78
2021/09/08 06:16:25;;;;;;;24.03;21.40;;;15.30;1.00;;;;;;5031422;28;20457;-79
2021/09/08 06:18:51;;;;;;;24.50;19.93;;;15.40;1.00;;;;;;5025937;28;20446;-78
2021/09/08 06:21:20;;;;;;;21.93;19.73;;;15.50;1.00;;;;;;5012885;28;20469;-78
2021/09/08 06:23:47;;;;;;;25.80;20.70;;;15.60;1.00;;;;;;5027656;28;20466;-78
2021/09/08 06:26:14;;;;;;;25.10;21.90;;;15.70;1.00;;;;;;5047637;28;21331;-78
2021/09/08 06:28:41;;;;;;;25.53;21.23;;;15.80;1.00;;;;;;5030496;28;20450;-79
2021/09/08 06:31:10;;;;;;;23.30;20.33;;;15.90;1.00;;;;;;5034592;28;20517;-80
2021/09/08 06:33:38;;;;;;;21.07;18.70;;;16.00;1.00;;;;;;5034763;28;20478;-80
2021/09/08 06:36:07;;;;;;;22.90;20.43;;;16.10;1.00;;;;;;5036221;28;23363;-80
2021/09/08 06:38:34;;;;;;;21.60;19.30;;;16.20;1.00;;;;;;5030539;28;20512;-81
2021/09/08 06:41:01;;;;;;;21.03;18.93;;;16.30;1.00;;;;;;5025613;28;20442;-80
2021/09/08 06:43:28;;;;;;;20.70;18.60;;;16.40;1.00;;;;;;5023835;28;20507;-80
2021/09/08 06:45:55;;;;;;;20.40;18.20;;;16.60;1.00;;;;;;5028217;28;20479;-77
2021/09/08 06:48:22;;;;;;;21.33;19.03;;;16.70;1.00;;;;;;5027561;28;20474;-81
2021/09/08 06:50:50;;;;;;;21.97;19.77;;;16.80;1.00;;;;;;5032144;28;21212;-78
2021/09/08 06:53:17;;;;;;;19.83;17.70;;;16.80;1.00;;;;;;5027429;28;20525;-78
2021/09/08 06:55:44;;;;;;;20.70;18.60;;;16.90;1.00;;;;;;5025346;28;20492;-78
2021/09/08 06:58:11;;;;;;;22.03;19.13;;;17.00;1.00;;;;;;5027977;28;20520;-79
2021/09/08 07:00:38;;;;;;;19.93;17.87;;;17.10;1.00;;;;;;5028230;28;20557;-77
2021/09/08 07:03:05;;;;;;;18.80;16.80;;;17.20;1.00;;;;;;5024818;28;23008;-79
2021/09/08 07:05:35;;;;;;;19.00;17.17;;;17.40;1.00;;;;;;5035070;28;20499;-78
2021/09/08 07:08:05;;;;;;;19.00;17.03;;;17.50;1.00;;;;;;5025620;28;20489;-79
2021/09/08 07:10:34;;;;;;;20.50;18.30;;;17.60;1.00;;;;;;5036572;28;20984;-80
2021/09/08 07:13:01;;;;;;;18.57;16.70;;;17.70;1.00;;;;;;5038522;28;20576;-81
2021/09/08 07:15:29;;;;;;;19.50;16.93;;;17.80;1.00;;;;;;5030118;28;21442;-79
2021/09/08 07:17:56;;;;;;;17.83;15.90;;;17.90;1.00;;;;;;5028209;28;20443;-78
2021/09/08 07:20:23;;;;;;;17.57;15.57;;;18.10;1.00;;;;;;5029842;28;20468;-79
2021/09/08 07:22:50;;;;;;;16.23;14.70;;;18.20;1.00;;;;;;5029001;28;21012;-78
2021/09/08 07:25:18;;;;;;;17.13;15.43;;;18.40;1.00;;;;;;5030773;28;21364;-80
2021/09/08 07:27:45;;;;;;;16.53;14.93;;;18.50;1.00;;;;;;5030072;28;20448;-81
2021/09/08 07:30:12;;;;;;;17.37;15.50;;;18.70;1.00;;;;;;5013298;28;20480;-79
2021/09/08 07:32:40;;;;;;;19.50;14.87;;;18.90;1.00;;;;;;5030336;28;20460;-80
2021/09/08 07:35:09;;;;;;;18.40;16.63;;;19.10;1.00;;;;;;5017063;28;20556;-81
2021/09/08 07:37:39;;;;;;;17.90;14.00;;;19.20;1.00;;;;;;5027162;28;20463;-80
2021/09/08 07:40:10;;;;;;;16.00;14.37;;;19.30;1.00;;;;;;5030670;28;20462;-80
2021/09/08 07:42:39;;;;;;;17.40;15.43;;;19.40;1.00;;;;;;5011483;28;20469;-80
2021/09/08 07:45:07;;;;;;;18.10;14.90;;;19.40;1.00;;;;;;5025497;28;20534;-80
2021/09/08 07:47:34;;;;;;;15.50;14.00;;;19.50;1.00;;;;;;5024074;28;20448;-81
2021/09/08 07:50:01;;;;;;;19.43;15.20;;;19.60;1.00;;;;;;5029087;28;20457;-81
2021/09/08 07:52:28;;;;;;;16.83;14.87;;;19.70;1.00;;;;;;5031126;28;20466;-81
2021/09/08 07:54:54;;;;;;;16.50;14.90;;;19.90;1.00;;;;;;5030870;28;21057;-80
2021/09/08 07:57:23;;;;;;;16.10;13.37;;;20.10;1.00;;;;;;5030584;28;20485;-80
2021/09/08 07:59:52;;;;;;;18.80;15.70;;;20.20;1.00;;;;;;5028943;28;20682;-78
2021/09/08 08:02:19;;;;;;;17.83;15.00;;;20.40;1.00;;;;;;5028208;28;20488;-80
2021/09/08 08:04:46;;;;;;;15.80;13.83;;;20.50;1.00;;;;;;5026888;28;20571;-80
2021/09/08 08:07:13;;;;;;;14.30;13.00;;;20.60;1.00;;;;;;5029270;28;21468;-80
2021/09/08 08:09:43;;;;;;;15.60;12.80;;;20.70;1.00;;;;;;5026142;28;20470;-79
2021/09/08 08:12:10;;;;;;;16.77;13.00;;;20.70;1.00;;;;;;5028651;28;20434;-79
2021/09/08 08:14:50;;;;;;;14.37;12.57;;;20.90;1.00;;;;;;5026329;28;21240;-79
2021/09/08 08:17:18;;;;;;;13.37;11.97;;;21.00;1.00;;;;;;5024877;28;20454;-79
2021/09/08 08:19:47;;;;;;;13.40;12.10;;;21.10;1.00;;;;;;5026750;28;21400;-79
2021/09/08 08:22:14;;;;;;;12.03;10.73;;;21.20;1.00;;;;;;5026787;28;20511;-80
2021/09/08 08:24:42;;;;;;;12.77;11.57;;;21.20;1.00;;;;;;5028767;28;20476;-81
2021/09/08 08:27:10;;;;;;;13.87;12.47;;;21.30;1.00;;;;;;5025477;28;20461;-80
2021/09/08 08:29:37;;;;;;;15.20;12.80;;;21.40;1.00;;;;;;5030487;28;20490;-81
2021/09/08 08:32:05;;;;;;;14.93;12.80;;;21.40;1.00;;;;;;5025099;28;20465;-79
2021/09/08 08:34:33;;;;;;;13.63;12.30;;;21.60;1.00;;;;;;5022901;28;20435;-81
2021/09/08 08:37:00;;;;;;;13.50;12.17;;;21.70;1.00;;;;;;5024704;28;20460;-80
2021/09/08 08:39:26;;;;;;;15.70;13.37;;;21.80;1.00;;;;;;5028450;28;20455;-78
2021/09/08 08:41:55;;;;;;;13.37;12.23;;;22.00;1.00;;;;;;5030314;28;20475;-79
2021/09/08 08:44:25;;;;;;;13.40;12.00;;;22.20;1.00;;;;;;5028576;28;20459;-79
2021/09/08 08:46:53;;;;;;;13.63;12.33;;;22.30;1.00;;;;;;5025003;28;20555;-78
2021/09/08 08:49:20;;;;;;;13.90;12.30;;;22.50;1.00;;;;;;5027040;28;20478;-80
2021/09/08 08:51:49;;;;;;;13.70;12.37;;;22.60;1.00;;;;;;5030617;28;20470;-80
2021/09/08 08:54:16;;;;;;;15.23;13.67;;;22.70;1.00;;;;;;5031085;28;20561;-80
2021/09/08 08:56:45;;;;;;;13.97;12.67;;;22.80;1.00;;;;;;5035293;28;20427;-81
2021/09/08 08:59:11;;;;;;;14.47;13.00;;;22.90;1.00;;;;;;5030527;28;20497;-80
2021/09/08 09:01:39;;;;;;;14.07;12.60;;;23.10;1.00;;;;;;5029514;28;20412;-80
2021/09/08 09:04:08;;;;;;;12.83;11.10;;;23.20;1.00;;;;;;5033085;28;20447;-79
2021/09/08 09:06:40;;;;;;;15.33;12.90;;;23.30;1.00;;;;;;5023620;28;20457;-80
2021/09/08 09:09:10;;;;;;;13.13;11.93;;;23.20;1.00;;;;;;5027835;28;20453;-80
2021/09/08 09:11:42;;;;;;;14.13;11.93;;;23.30;1.00;;;;;;5030338;28;20564;-79
2021/09/08 09:14:10;;;;;;;12.20;11.10;;;23.50;1.00;;;;;;5021553;28;20973;-80
2021/09/08 09:16:39;;;;;;;11.97;10.77;;;23.60;1.00;;;;;;5026860;28;20447;-79
2021/09/08 09:19:07;;;;;;;12.80;11.57;;;23.90;1.00;;;;;;5027153;28;20462;-79
2021/09/08 09:21:35;;;;;;;12.83;11.73;;;24.60;1.00;;;;;;5023257;28;20462;-81
2021/09/08 09:24:05;;;;;;;11.50;10.30;;;25.90;1.00;;;;;;5025725;28;20898;-80
2021/09/08 09:26:35;;;;;;;14.50;13.00;;;27.50;1.00;;;;;;5037770;28;20477;-78
2021/09/08 09:29:16;;;;;;;11.20;10.10;;;29.20;1.00;;;;;;5035696;28;21474;-80
2021/09/08 09:31:51;;;;;;;12.30;11.20;;;30.40;1.00;;;;;;5028082;28;20528;-82
2021/09/08 09:34:18;;;;;;;10.70;9.17;;;31.30;1.00;;;;;;5045461;28;20420;-83
2021/09/08 09:36:45;;;;;;;9.43;8.63;;;32.10;1.00;;;;;;5029914;28;20461;-81
2021/09/08 09:39:12;;;;;;;11.63;10.43;;;32.90;1.00;;;;;;5034185;28;20461;-83
2021/09/08 09:41:40;;;;;;;11.07;10.07;;;32.80;1.00;;;;;;5026891;28;20491;-83
2021/09/08 09:44:08;;;;;;;10.93;9.93;;;32.50;1.00;;;;;;5033979;28;20543;-82
2021/09/08 09:46:36;;;;;;;10.30;9.50;;;32.60;1.00;;;;;;5034769;28;20476;-83
2021/09/08 09:49:04;;;;;;;10.07;8.77;;;32.50;1.00;;;;;;5030627;28;20501;-82
2021/09/08 09:51:31;;;;;;;11.43;10.33;;;32.50;1.00;;;;;;5034309;28;21246;-82
2021/09/08 09:53:58;;;;;;;12.10;10.97;;;32.40;1.00;;;;;;5017151;28;20571;-81
2021/09/08 09:56:28;;;;;;;10.80;9.77;;;33.00;1.00;;;;;;5038741;28;20665;-81
2021/09/08 09:58:56;;;;;;;10.80;9.77;;;33.20;1.00;;;;;;5030707;28;20475;-81
2021/09/08 10:01:23;;;;;;;11.40;10.30;;;33.60;1.00;;;;;;5037849;28;20578;-81
2021/09/08 10:03:49;;;;;;;12.03;11.13;;;33.80;1.00;;;;;;5040905;28;20509;-81
2021/09/08 10:06:19;;;;;;;11.23;10.13;;;34.00;1.00;;;;;;5035579;28;21278;-81
2021/09/08 10:08:48;;;;;;;11.50;10.40;;;34.40;1.00;;;;;;5036308;28;20412;-81
2021/09/08 10:11:22;;;;;;;11.63;10.67;;;34.60;1.00;;;;;;5044194;28;20475;-82
2021/09/08 10:13:57;;;;;;;10.20;9.40;;;34.10;1.00;;;;;;5042592;28;20420;-82
2021/09/08 10:16:31;;;;;;;10.30;9.50;;;34.00;1.00;;;;;;5034763;28;20454;-81
2021/09/08 10:18:57;;;;;;;10.97;10.10;;;34.70;1.00;;;;;;5026895;28;20457;-80
2021/09/08 10:21:24;;;;;;;12.60;10.60;;;34.90;1.00;;;;;;5031970;28;20725;-79
2021/09/08 10:23:57;;;;;;;10.80;9.80;;;35.00;1.00;;;;;;5034007;28;20464;-80
2021/09/08 10:26:29;;;;;;;10.40;9.50;;;34.30;1.00;;;;;;5035786;28;20429;-80
2021/09/08 10:29:05;;;;;;;16.10;14.67;;;33.80;1.00;;;;;;5034762;28;20471;-80
2021/09/08 10:31:36;;;;;;;9.10;8.20;;;33.50;1.00;;;;;;5033168;28;20464;-79
2021/09/08 10:34:04;;;;;;;9.43;8.50;;;33.90;1.00;;;;;;5034671;28;20441;-79
2021/09/08 10:36:33;;;;;;;10.63;9.57;;;34.70;1.00;;;;;;5012915;28;20445;-80
2021/09/08 10:39:08;;;;;;;13.53;9.60;;;35.10;1.00;;;;;;5031861;28;20468;-80
2021/09/08 10:41:44;;;;;;;12.20;11.10;;;35.40;1.00;;;;;;5035216;28;20530;-80
2021/09/08 10:44:12;;;;;;;11.57;10.47;;;35.10;1.00;;;;;;5034675;28;20513;-80
2021/09/08 10:46:55;;;;;;;12.47;11.23;;;34.50;1.00;;;;;;5046720;28;20506;-80
2021/09/08 10:49:50;;;;;;;11.80;10.70;;;34.40;1.00;;;;;;5028988;28;20458;-79
2021/09/08 10:52:42;;;;;;;10.67;9.67;;;34.20;1.00;;;;;;5035473;28;20553;-78
2021/09/08 10:55:25;;;;;;;14.03;9.87;;;34.80;1.00;;;;;;5027682;28;20446;-78
2021/09/08 10:57:58;;;;;;;10.73;9.73;;;35.10;1.00;;;;;;5027284;28;20466;-78
2021/09/08 11:00:38;;;;;;;10.73;9.83;;;35.80;1.00;;;;;;5016908;28;20467;-78
2021/09/08 11:03:25;;;;;;;10.60;9.60;;;35.90;1.00;;;;;;5026957;28;20522;-79
2021/09/08 11:05:55;;;;;;;11.03;10.03;;;36.70;1.00;;;;;;5024872;28;20445;-79
2021/09/08 11:08:28;;;;;;;11.50;10.50;;;37.20;1.00;;;;;;5009129;28;21037;-78
2021/09/08 11:11:16;;;;;;;11.13;9.33;;;37.30;1.00;;;;;;5027255;28;20875;-79
2021/09/08 11:13:54;;;;;;;9.90;9.10;;;37.20;1.00;;;;;;5031007;28;21464;-80
2021/09/08 11:16:23;;;;;;;10.70;9.70;;;37.00;1.00;;;;;;5031095;28;20888;-80
2021/09/08 11:18:52;;;;;;;9.47;8.77;;;37.10;1.00;;;;;;5035040;28;20459;-79
2021/09/08 11:21:22;;;;;;;11.37;10.37;;;36.90;1.00;;;;;;5030340;28;20530;-79
2021/09/08 11:23:56;;;;;;;10.77;9.77;;;36.30;1.00;;;;;;5030994;28;20468;-79
2021/09/08 11:26:26;;;;;;;10.67;9.67;;;36.10;1.00;;;;;;5027673;28;20881;-81
2021/09/08 11:28:58;;;;;;;11.27;10.07;;;35.80;1.00;;;;;;5019983;28;20464;-79
2021/09/08 11:31:25;;;;;;;10.53;9.63;;;36.30;1.00;;;;;;5025427;28;20548;-80
2021/09/08 11:33:54;;;;;;;11.93;10.73;;;36.80;1.00;;;;;;5023542;28;20473;-79
2021/09/08 11:36:24;;;;;;;10.43;9.53;;;36.50;1.00;;;;;;5021366;28;21391;-79
2021/09/08 11:38:56;;;;;;;10.10;9.20;;;36.90;1.00;;;;;;5015785;28;20453;-79
2021/09/08 11:41:24;;;;;;;9.73;8.83;;;37.20;1.00;;;;;;5022902;28;20520;-80
2021/09/08 11:43:53;;;;;;;11.53;10.40;;;37.50;1.00;;;;;;5023924;28;20966;-79
2021/09/08 11:46:21;;;;;;;9.90;9.00;;;37.60;1.00;;;;;;5027593;28;20472;-79
2021/09/08 11:48:50;;;;;;;10.90;9.90;;;37.70;1.00;;;;;;5029897;28;20456;-79
2021/09/08 11:51:20;;;;;;;9.40;8.60;;;37.80;1.00;;;;;;5022689;28;20534;-78
2021/09/08 11:53:49;;;;;;;10.60;9.57;;;38.00;1.00;;;;;;5026024;28;20470;-78
2021/09/08 11:56:18;;;;;;;9.60;8.73;;;37.10;1.00;;;;;;5032733;28;20810;-77
2021/09/08 11:58:50;;;;;;;10.90;10.00;;;36.60;1.00;;;;;;5020652;28;20451;-78
2021/09/08 12:01:17;;;;;;;9.80;7.40;;;36.50;1.00;;;;;;5020080;28;20496;-78
2021/09/08 12:03:46;;;;;;;9.43;8.40;;;36.50;1.00;;;;;;5029786;28;20459;-79
2021/09/08 12:06:19;;;;;;;10.23;8.93;;;36.90;1.00;;;;;;5010385;28;20583;-79
2021/09/08 12:08:54;;;;;;;10.17;9.13;;;37.20;1.00;;;;;;5023436;28;20455;-78
2021/09/08 12:11:32;;;;;;;8.03;7.33;;;37.60;1.00;;;;;;5025058;28;20455;-79
2021/09/08 12:14:00;;;;;;;9.03;8.30;;;38.20;1.00;;;;;;5027824;28;20450;-79
2021/09/08 12:16:37;;;;;;;10.33;9.43;;;38.60;1.00;;;;;;5020954;28;20491;-78
2021/09/08 12:19:13;;;;;;;8.80;7.90;;;38.10;1.00;;;;;;5030843;28;20452;-79
2021/09/08 12:21:42;;;;;;;8.10;7.40;;;37.30;1.00;;;;;;5027954;28;20452;-80
2021/09/08 12:24:27;;;;;;;8.70;7.90;;;37.50;1.00;;;;;;5024786;28;20562;-80
2021/09/08 12:26:55;;;;;;;10.53;7.77;;;38.10;1.00;;;;;;5025490;28;20479;-80
2021/09/08 12:29:22;;;;;;;9.00;8.20;;;38.10;1.00;;;;;;5027783;28;21061;-80
2021/09/08 12:31:52;;;;;;;9.30;8.43;;;38.60;1.00;;;;;;5024894;28;20445;-79
2021/09/08 12:34:19;;;;;;;9.73;8.83;;;39.40;1.00;;;;;;5033829;28;20539;-79
2021/09/08 12:36:48;;;;;;;7.83;7.13;;;39.90;1.00;;;;;;5025897;28;21104;-77
2021/09/08 12:39:17;;;;;;;9.43;8.53;;;39.80;1.00;;;;;;5023582;28;21287;-79
2021/09/08 12:41:59;;;;;;;9.03;7.50;;;40.10;1.00;;;;;;5024459;28;20852;-77
2021/09/08 12:44:29;;;;;;;9.60;8.47;;;40.10;1.00;;;;;;5028631;28;20961;-79
2021/09/08 12:46:55;;;;;;;9.07;7.97;;;40.00;1.00;;;;;;5031059;28;20451;-77
2021/09/08 12:49:24;;;;;;;9.17;8.37;;;39.90;1.00;;;;;;5032023;28;20514;-78